Mokpo, South Korea

5:26 PM KST on August 31, 2015 (GMT +0900)
Muan International Airpor | | Change Station
CLOSE
Current Station
Airport
Location: Muan International Airpor,
Elevation: 7 ft
Nearby Weather Stations

Elev 7 ft 34.99 °N, 126.38 °E | Updated 26 minutes ago

Mostly Cloudy
Mostly Cloudy
79 °F
Feels Like 79 °F
N
9
Wind Variable Wind from NNW

Today
High -- | Low -- °F
--% Chance of Precip.
Yesterday
High -- | Low -- °F
Precip. -- in
6:06 AM 7:03 PM
Waning Gibbous, 96% visible
Pressure 29.83 in
Visibility 3.7 miles
Clouds Scattered Clouds 2500 ft
Mostly Cloudy 12000 ft
Dew Point 73 °F
Humidity 83%
Rainfall 0.00 in
Snow Depth Not available.
UV 1 out of 12
Pollen Not available.
Air Quality Not available.
Flu Activity Not available.
METAR RKJB 310800Z 34008KT 6000 SCT025 BKN120 26/23 Q1010 NOSIG
Pressure 29.83 in
Visibility 3.7 miles
Clouds Scattered Clouds 2500 ft
Mostly Cloudy 12000 ft
Dew Point 73 °F
Humidity 83%
Rainfall 0.00 in
Snow Depth Not available.
UV 1 out of 12
Pollen Not available.
Air Quality Not available.
Flu Activity Not available.
METAR RKJB 310800Z 34008KT 6000 SCT025 BKN120 26/23 Q1010 NOSIG

10-Day Weather Forecast

×

Almanac

Astronomy

Aug. 31, 2015 Rise Set
Actual Time
Civil Twilight
Nautical Twilight
Astronomical Twilight
Moon
Length of Visible Light
Length of Day
Tomorrow will be .
, % of the Moon is Illuminated

Today's Extremes

Country Highs Country Lows

Community

WunderPhotos

Upload Photos

1,851,220 photos uploaded!

WunderBlogs® & News

Nearby

Air Quality

  Air Quality AQ Index Pollutant
Not available.

Snow Depth

Station Depth Elevation

Earthquake Activity

City Distance Mag. Time & Date
Minimum magnitude displayed is 2.5.

Coastal Water Temperatures

Place Temperature

Stations

Nearby Weather Stations

Station Location Temp. Windchill Dew Point Humidity Wind Precip. Elev Updated Type